Latest Coastal Weather Observations for Point Stuart

IDD60701

Issued at 3:51 pm CST Wednesday 24 August 2016 (issued every 10 minutes, with the page automatically refreshed every 10 minutes)

About coastal observations | Map of coastal stations | Coastal observations for NT | Marine services | Other Formats
Station Details ID: 014254 Name: POINT STUART Lat: -12.24 Lon: 131.88 Height: 1.0 m
Data from the previous 72 hours. | See also: Recent months at Point Stuart
Date/Time
CST
Temp
°C
Wind Pressure Rain since
9am
mm
Weather Cloud Vis
km
Sea
Height
m
Swell
Dir  Spd
kts
Gust
kts
hPa Trend Height
m
Period
s
Dir
24/03:30pm 31.1 NNW 8 11 1007.0 - 0.0 - - - - - - -
24/03:00pm 31.2 NNW 8 12 1007.4 - 0.0 - - - - - - -
24/02:30pm 31.0 NNW 9 13 1007.8 - 0.0 - - - - - - -
24/02:00pm 31.3 NNW 8 13 1008.2 - 0.0 - - - - - - -
24/01:30pm 31.4 NNW 8 12 1008.6 - 0.0 - - - - - - -
24/01:00pm 30.4 NNW 9 12 1009.2 - 0.0 - - - - - - -
24/12:30pm 30.5 NNW 7 11 1009.7 - 0.0 - - - - - - -
24/12:00pm 30.2 N 8 12 1010.3 - 0.0 - - - - - - -
24/11:30am 29.9 NNW 8 13 1010.9 - 0.0 - - - - - - -
24/11:00am 29.7 NNW 7 11 1011.3 - 0.0 - - - - - - -
24/10:30am 29.3 NNW 5 9 1011.6 - 0.0 - - - - - - -
24/10:00am 28.7 N 5 8 1011.8 - 0.0 - - - - - - -
24/09:30am 27.9 N 4 7 1011.9 - 0.0 - - - - - - -
24/09:00am 26.8 N 1 7 1011.8 - 0.0 - - - - - - -
24/08:30am 24.8 CALM 0 0 1011.6 - 0.0 - - - - - - -
24/08:00am 23.6 CALM 0 0 1011.3 - 0.0 - - - - - - -
24/07:30am 22.0 CALM 0 0 1011.1 - 0.0 - - - - - - -
24/07:00am 21.3 S 2 4 1010.8 - 0.0 - - - - - - -
24/06:30am 21.5 SSW 4 4 1010.5 - 0.0 - - - - - - -
24/06:00am 21.8 SSW 3 3 1010.3 - 0.0 - - - - - - -
24/05:30am 21.8 SSW 4 5 1010.2 - 0.0 - - - - - - -
24/05:00am 21.9 S 4 5 1010.0 - 0.0 - - - - - - -
24/04:30am 22.1 SSW 5 5 1009.9 - 0.0 - - - - - - -
24/04:00am 22.1 SSW 4 5 1009.8 - 0.0 - - - - - - -
24/03:30am 22.4 SSW 4 5 1009.7 - 0.0 - - - - - - -
24/03:00am 22.8 WSW 4 5 1009.6 - 0.0 - - - - - - -
24/02:30am 23.2 WSW 6 7 1009.5 - 0.0 - - - - - - -
24/02:00am 23.2 WSW 7 8 1009.4 - 0.0 - - - - - - -
24/01:30am 23.4 WSW 6 7 1009.5 - 0.0 - - - - - - -
24/01:00am 23.8 WSW 6 6 1009.7 - 0.0 - - - - - - -
24/12:30am 24.0 WSW 6 7 1009.6 - 0.0 - - - - - - -
24/12:00am 24.8 WSW 5 6 1009.6 - 0.0 - - - - - - -
 
Date/Time
CST
Temp
°C
Wind Pressure Rain since
9am
mm
Weather Cloud Vis
km
Sea
Height
m
Swell
Dir  Spd
kts
Gust
kts
hPa Trend Height
m
Period
s
Dir
23/11:30pm 26.0 W 8 10 1009.6 - 0.0 - - - - - - -
23/11:00pm 26.2 W 8 13 1009.6 - 0.0 - - - - - - -
23/10:30pm 26.1 WNW 10 13 1009.5 - 0.0 - - - - - - -
23/10:00pm 26.3 WNW 10 14 1009.4 - 0.0 - - - - - - -
23/09:30pm 26.2 NW 10 13 1009.3 - 0.0 - - - - - - -
23/09:00pm 26.1 NW 9 12 1009.1 - 0.0 - - - - - - -
23/08:30pm 26.2 NW 10 13 1008.9 - 0.0 - - - - - - -
23/08:00pm 26.4 NNW 9 13 1008.8 - 0.0 - - - - - - -
23/07:30pm 26.4 NNW 9 13 1008.4 - 0.0 - - - - - - -
23/07:00pm 26.3 NNW 8 11 1008.0 - 0.0 - - - - - - -
23/06:30pm 27.1 N 7 11 1007.4 - 0.0 - - - - - - -
23/06:00pm 27.9 NNW 8 12 1007.2 - 0.0 - - - - - - -
23/05:30pm 29.6 NNW 7 11 1007.1 - 0.0 - - - - - - -
23/05:00pm 29.5 NNW 6 11 1006.7 - 0.0 - - - - - - -
23/04:30pm 30.0 NNW 7 11 1006.8 - 0.0 - - - - - - -
23/04:00pm 29.9 NNW 7 12 1006.8 - 0.0 - - - - - - -
23/03:30pm 30.1 NNW 6 11 1006.9 - 0.0 - - - - - - -
23/03:00pm 30.1 N 6 12 1007.2 - 0.0 - - - - - - -
23/02:30pm 30.4 NNW 7 12 1007.7 - 0.0 - - - - - - -
23/02:00pm 30.5 NW 10 15 1008.2 - 0.0 - - - - - - -
23/01:30pm 30.3 NW 9 14 1008.7 - 0.0 - - - - - - -
23/01:00pm 30.0 NW 10 14 1009.1 - 0.0 - - - - - - -
23/12:30pm 29.9 NNW 8 13 1009.5 - 0.0 - - - - - - -
23/12:00pm 29.4 NW 8 12 1010.1 - 0.0 - - - - - - -
23/11:30am 29.2 NW 5 8 1010.4 - 0.0 - - - - - - -
23/11:00am 29.0 NNW 6 10 1010.8 - 0.0 - - - - - - -
23/10:30am 28.8 NNW 6 10 1011.0 - 0.0 - - - - - - -
23/10:00am 28.2 NNW 6 9 1011.1 - 0.0 - - - - - - -
23/09:30am 27.6 N 6 10 1011.1 - 0.0 - - - - - - -
23/09:00am 27.1 N 5 9 1010.9 - 0.0 - - - - - - -
23/08:30am 26.5 NNW 5 8 1010.7 - 0.0 - - - - - - -
23/08:00am 25.2 NNW 3 5 1010.4 - 0.0 - - - - - - -
23/07:30am 23.2 N 2 4 1010.2 - 0.0 - - - - - - -
23/07:00am 22.4 N 3 4 1010.0 - 0.0 - - - - - - -
23/06:30am 23.4 N 1 3 1009.8 - 0.0 - - - - - - -
23/06:00am 23.9 N 1 4 1009.5 - 0.0 - - - - - - -
23/05:30am 23.9 NW 4 5 1009.3 - 0.0 - - - - - - -
23/05:00am 24.5 WNW 6 7 1009.2 - 0.0 - - - - - - -
23/04:30am 24.4 WNW 5 7 1009.2 - 0.0 - - - - - - -
23/04:00am 24.7 NW 7 8 1009.1 - 0.0 - - - - - - -
23/03:30am 24.8 NW 7 10 1009.0 - 0.0 - - - - - - -
23/03:00am 25.3 NW 8 10 1009.1 - 0.0 - - - - - - -
23/02:30am 25.7 NW 9 12 1009.3 - 0.0 - - - - - - -
23/02:00am 25.9 NW 9 12 1009.5 - 0.0 - - - - - - -
23/01:30am 25.7 NW 8 11 1009.7 - 0.0 - - - - - - -
23/01:00am 25.9 NW 9 12 1009.9 - 0.0 - - - - - - -
23/12:30am 25.9 NNW 9 13 1010.1 - 0.0 - - - - - - -
23/12:00am 25.9 NNW 8 11 1010.4 - 0.0 - - - - - - -
 
Date/Time
CST
Temp
°C
Wind Pressure Rain since
9am
mm
Weather Cloud Vis
km
Sea
Height
m
Swell
Dir  Spd
kts
Gust
kts
hPa Trend Height
m
Period
s
Dir
22/11:30pm 25.8 NNW 7 12 1010.4 - 0.0 - - - - - - -
22/11:00pm 25.8 NNW 8 12 1010.2 - 0.0 - - - - - - -
22/10:30pm 25.9 NNW 8 11 1010.2 - 0.0 - - - - - - -
22/10:00pm 25.8 NNW 8 12 1009.8 - 0.0 - - - - - - -
22/09:30pm 25.9 NNW 9 15 1009.6 - 0.0 - - - - - - -
22/09:00pm 25.8 NNW 10 14 1009.2 - 0.0 - - - - - - -
22/08:30pm 25.8 NNW 10 13 1008.7 - 0.0 - - - - - - -
22/08:00pm 25.8 NNW 7 10 1008.4 - 0.0 - - - - - - -
22/07:30pm 25.9 NNW 5 8 1008.0 - 0.0 - - - - - - -
22/07:00pm 26.9 NNW 5 6 1007.5 - 0.0 - - - - - - -
22/06:30pm 28.5 N 2 4 1007.3 - 0.0 - - - - - - -
22/06:00pm 29.2 NNE 4 6 1007.0 - 0.0 - - - - - - -
22/05:30pm 29.6 NNE 5 8 1006.8 - 0.0 - - - - - - -
22/05:00pm 30.0 N 5 8 1006.7 - 0.0 - - - - - - -
22/04:30pm 29.9 NNW 5 9 1006.5 - 0.0 - - - - - - -
22/04:00pm 30.4 NNW 6 10 1006.6 - 0.0 - - - - - - -
22/03:30pm 30.0 NNW 8 11 1006.9 - 0.0 - - - - - - -
22/03:00pm 30.4 NNW 8 12 1007.1 - 0.0 - - - - - - -
22/02:30pm 30.4 NNW 9 13 1007.4 - 0.0 - - - - - - -
22/02:00pm 29.9 NNW 8 12 1007.8 - 0.0 - - - - - - -
22/01:30pm 29.9 NNW 8 13 1008.4 - 0.0 - - - - - - -
22/01:00pm 30.1 NNW 7 11 1008.8 - 0.0 - - - - - - -
22/12:30pm 29.7 NNW 7 10 1009.4 - 0.0 - - - - - - -
22/12:00pm 29.1 N 7 11 1009.9 - 0.0 - - - - - - -
22/11:30am 29.3 NNW 7 11 1010.4 - 0.0 - - - - - - -
22/11:00am 28.8 N 6 9 1010.8 - 0.0 - - - - - - -
22/10:30am 28.6 N 5 9 1011.1 - 0.0 - - - - - - -
22/10:00am 28.1 N 6 10 1011.4 - 0.0 - - - - - - -
22/09:30am 27.4 N 5 8 1011.4 - 0.0 - - - - - - -
22/09:00am 26.6 N 5 8 1011.3 - 0.0 - - - - - - -
22/08:30am 25.3 NNE 5 9 1011.0 - 0.0 - - - - - - -
22/08:00am 23.0 CALM 0 4 1010.9 - 0.0 - - - - - - -
22/07:30am 21.2 CALM 0 0 1010.8 - 0.0 - - - - - - -
22/07:00am 20.4 CALM 0 0 1010.4 - 0.0 - - - - - - -
22/06:30am 20.7 CALM 0 0 1009.9 - 0.0 - - - - - - -
22/06:00am 21.0 S 2 4 1009.7 - 0.0 - - - - - - -
22/05:30am 21.4 CALM 0 0 1009.3 - 0.0 - - - - - - -
22/05:00am 21.9 NNE 1 3 1009.1 - 0.0 - - - - - - -
22/04:30am 22.5 NNE 5 6 1008.9 - 0.0 - - - - - - -
22/04:00am 22.4 NNE 4 5 1008.9 - 0.0 - - - - - - -
22/03:30am 22.2 CALM 0 0 1009.0 - 0.0 - - - - - - -
22/03:00am 22.8 N 1 4 1009.1 - 0.0 - - - - - - -
22/02:30am 23.5 N 2 4 1009.4 - 0.0 - - - - - - -
22/02:00am 23.9 N 2 4 1009.5 - 0.0 - - - - - - -
22/01:30am 24.4 N 4 6 1009.8 - 0.0 - - - - - - -
22/01:00am 25.0 N 4 6 1010.2 - 0.0 - - - - - - -
22/12:30am 25.1 NNW 5 7 1010.5 - 0.0 - - - - - - -
22/12:00am 25.3 N 5 8 1010.6 - 0.0 - - - - - - -
 
Date/Time
CST
Temp
°C
Wind Pressure Rain since
9am
mm
Weather Cloud Vis
km
Sea
Height
m
Swell
Dir  Spd
kts
Gust
kts
hPa Trend Height
m
Period
s
Dir
21/11:30pm 25.3 N 5 8 1010.5 - 0.0 - - - - - - -
21/11:00pm 25.5 NNW 5 8 1010.4 - 0.0 - - - - - - -
21/10:30pm 25.3 NNW 5 7 1010.3 - 0.0 - - - - - - -
21/10:00pm 25.3 NNW 5 8 1010.3 - 0.0 - - - - - - -
21/09:30pm 25.3 N 4 6 1010.0 - 0.0 - - - - - - -
21/09:00pm 25.3 NNW 5 7 1009.7 - 0.0 - - - - - - -
21/08:30pm 25.2 NNW 4 6 1009.4 - 0.0 - - - - - - -
21/08:00pm 25.4 NNW 3 5 1009.1 - 0.0 - - - - - - -
21/07:30pm 25.7 NNW 3 5 1008.6 - 0.0 - - - - - - -
21/07:00pm 26.3 NNW 3 6 1008.5 - 0.0 - - - - - - -
21/06:30pm 27.3 NNW 4 7 1008.2 - 0.0 - - - - - - -
21/06:00pm 28.2 N 6 9 1008.0 - 0.0 - - - - - - -
21/05:30pm 28.7 N 7 11 1007.9 - 0.0 - - - - - - -
21/05:00pm 29.1 N 7 12 1007.7 - 0.0 - - - - - - -
21/04:30pm 29.6 N 8 14 1007.7 - 0.0 - - - - - - -
21/04:00pm 30.0 N 8 13 1007.8 - 0.0 - - - - - - -

Other Formats:

Comma delimited format used in spreadsheet applications
http://www.bom.gov.au/fwo/IDD60701/IDD60701.94127.axf

JavaScript Object Notation format (JSON) in row-major order
http://www.bom.gov.au/fwo/IDD60701/IDD60701.94127.json